createdAt,value
2022-11-23T00:04:57.346Z,98684.88
2022-11-23T00:09:58.940Z,98690.69
2022-11-23T00:15:00.524Z,98694.81
2022-11-23T00:20:02.118Z,98691.31
2022-11-23T00:25:04.237Z,98686.44
2022-11-23T00:30:06.336Z,98685.59
2022-11-23T00:35:08.659Z,98679.75
2022-11-23T00:40:10.575Z,98672.19
2022-11-23T00:45:12.177Z,98674.75
2022-11-23T00:50:14.093Z,98678.78
2022-11-23T00:55:17.481Z,98676.25
2022-11-23T01:00:19.137Z,98681.28
2022-11-23T01:05:20.747Z,98670.47
2022-11-23T01:10:22.532Z,98657.97
2022-11-23T01:15:24.832Z,98650.69
2022-11-23T01:20:27.575Z,98646.41
2022-11-23T01:25:29.410Z,98654.69
2022-11-23T01:30:34.591Z,98640.50
2022-11-23T01:35:36.212Z,98638.03
2022-11-23T01:40:42.813Z,98633.91
2022-11-23T01:45:57.172Z,98634.69
2022-11-23T01:51:01.323Z,98636.31
2022-11-23T01:56:06.286Z,98629.78
2022-11-23T02:01:08.525Z,98628.06
2022-11-23T02:06:16.058Z,98628.16
2022-11-23T02:11:17.753Z,98623.13
2022-11-23T02:16:19.535Z,98627.28
2022-11-23T02:21:21.859Z,98623.09
2022-11-23T02:26:27.370Z,98628.94
2022-11-23T02:31:29.607Z,98625.47
2022-11-23T02:36:43.183Z,98628.06
2022-11-23T02:41:49.927Z,98628.16
2022-11-23T02:46:53.140Z,98633.03
2022-11-23T02:51:55.017Z,98638.88
2022-11-23T02:56:59.004Z,98650.50
2022-11-23T03:02:01.886Z,98636.38
2022-11-23T03:07:05.056Z,98648.91
2022-11-23T03:12:07.529Z,98641.44
2022-11-23T03:17:09.271Z,98638.97
2022-11-23T03:22:15.893Z,98641.47
2022-11-23T03:27:17.535Z,98645.66
2022-11-23T03:32:20.611Z,98656.31
2022-11-23T03:37:25.753Z,98663.84
2022-11-23T03:42:27.953Z,98672.81
2022-11-23T03:47:30.508Z,98667.91
2022-11-23T03:52:32.082Z,98661.94
2022-11-23T03:57:33.683Z,98653.69
2022-11-23T04:02:37.788Z,98659.66
2022-11-23T04:07:45.972Z,98651.25
2022-11-23T04:12:52.536Z,98639.53
2022-11-23T04:17:54.816Z,98644.50
2022-11-23T04:22:56.496Z,98643.72
2022-11-23T04:28:00.390Z,98641.06
2022-11-23T04:33:02.193Z,98648.75
2022-11-23T04:38:04.091Z,98666.25
2022-11-23T04:43:06.681Z,98660.28
2022-11-23T04:48:09.881Z,98664.53
2022-11-23T04:53:12.732Z,98670.22
2022-11-23T04:58:20.036Z,98657.72
2022-11-23T05:03:27.145Z,98658.66
2022-11-23T05:08:29.372Z,98671.19
2022-11-23T05:14:06.429Z,98666.97
2022-11-23T05:19:08.171Z,98671.19
2022-11-23T05:24:09.893Z,98677.03
2022-11-23T05:29:19.036Z,98687.91
2022-11-23T05:34:20.740Z,98685.41
2022-11-23T05:39:23.339Z,98687.94
2022-11-23T05:44:27.339Z,98695.53
2022-11-23T05:49:29.159Z,98696.31
2022-11-23T05:54:31.192Z,98700.34
2022-11-23T05:59:48.090Z,98691.25
2022-11-23T06:04:54.100Z,98697.97
2022-11-23T06:10:07.293Z,98700.28
2022-11-23T06:15:12.969Z,98694.53
2022-11-23T06:20:15.386Z,98698.66
2022-11-23T06:25:23.047Z,98711.28
2022-11-23T06:30:44.940Z,98714.56
2022-11-23T06:35:55.860Z,98719.59
2022-11-23T06:41:00.909Z,98718.81
2022-11-23T06:46:06.387Z,98733.78
2022-11-23T06:51:10.491Z,98730.34
2022-11-23T06:56:12.358Z,98736.25
2022-11-23T07:01:14.582Z,98726.38
2022-11-23T07:06:23.051Z,98722.16
2022-11-23T07:11:28.607Z,98716.31
2022-11-23T07:16:30.469Z,98731.13
2022-11-23T07:21:32.752Z,98732.06
2022-11-23T07:26:34.360Z,98735.47
2022-11-23T07:31:38.726Z,98743.75
2022-11-23T07:36:40.584Z,98733.69
2022-11-23T07:41:42.432Z,98743.03
2022-11-23T07:47:01.168Z,98741.25
2022-11-23T07:52:02.954Z,98742.03
2022-11-23T07:57:04.620Z,98742.16
2022-11-23T08:02:06.771Z,98729.63
2022-11-23T08:07:08.528Z,98731.44
2022-11-23T08:12:10.201Z,98730.44
2022-11-23T08:17:11.791Z,98726.53
2022-11-23T08:22:15.874Z,98721.63
2022-11-23T08:27:17.681Z,98718.28
2022-11-23T08:32:19.446Z,98718.41
2022-11-23T08:37:21.128Z,98719.16
2022-11-23T08:42:22.897Z,98721.72
2022-11-23T08:47:24.517Z,98723.41
2022-11-23T08:52:26.885Z,98726.03
2022-11-23T08:57:28.891Z,98724.31
2022-11-23T09:02:30.655Z,98725.25
2022-11-23T09:07:32.483Z,98733.56
2022-11-23T09:12:34.238Z,98729.38
2022-11-23T09:17:36.358Z,98730.16
2022-11-23T09:22:38.805Z,98724.31
2022-11-23T09:27:40.405Z,98717.75
2022-11-23T09:32:42.235Z,98711.03
2022-11-23T09:37:43.840Z,98698.59
2022-11-23T09:42:51.183Z,98702.03
2022-11-23T09:48:25.633Z,98706.22
2022-11-23T09:53:36.227Z,98702.03
2022-11-23T09:58:41.086Z,98700.50
2022-11-23T10:03:48.852Z,98694.91
2022-11-23T10:09:22.457Z,98690.78
2022-11-23T10:14:53.873Z,98685.97
2022-11-23T10:20:15.692Z,98679.34
2022-11-23T10:25:20.586Z,98671.16
2022-11-23T10:30:22.295Z,98673.84
2022-11-23T10:35:33.632Z,98678.78
2022-11-23T10:40:40.060Z,98679.59
2022-11-23T10:45:44.078Z,98676.34
2022-11-23T10:50:47.448Z,98683.13
2022-11-23T10:55:55.187Z,98676.38
2022-11-23T11:01:14.898Z,98671.44
2022-11-23T11:06:29.307Z,98667.38
2022-11-23T11:11:34.171Z,98674.19
2022-11-23T11:16:37.905Z,98668.41
2022-11-23T11:21:42.183Z,98668.38
2022-11-23T11:26:50.958Z,98661.69
2022-11-23T11:31:56.292Z,98659.22
2022-11-23T11:37:04.305Z,98665.06
2022-11-23T11:42:13.603Z,98666.88
2022-11-23T11:47:18.353Z,98652.59
2022-11-23T11:52:33.206Z,98653.44
2022-11-23T11:57:45.576Z,98645.00
2022-11-23T12:03:20.169Z,98653.38
2022-11-23T12:08:49.904Z,98658.50
2022-11-23T12:14:01.417Z,98656.78
2022-11-23T12:19:54.885Z,98655.19
2022-11-23T12:25:19.934Z,98656.91
2022-11-23T12:30:40.079Z,98655.19
2022-11-23T12:35:51.155Z,98656.00
2022-11-23T12:41:15.501Z,98655.22
2022-11-23T12:46:35.529Z,98648.56
2022-11-23T12:52:14.562Z,98648.50
2022-11-23T12:57:34.123Z,98631.88
2022-11-23T13:02:52.239Z,98630.22
2022-11-23T13:08:31.100Z,98641.97
2022-11-23T13:13:45.582Z,98637.81
2022-11-23T13:19:33.812Z,98636.13
2022-11-23T13:24:39.500Z,98646.13
2022-11-23T13:29:50.021Z,98643.69
2022-11-23T13:34:51.653Z,98643.66
2022-11-23T13:39:53.546Z,98640.38
2022-11-23T13:45:23.444Z,98642.84
2022-11-23T13:50:26.133Z,98636.16
2022-11-23T13:55:37.064Z,98647.88
2022-11-23T14:00:59.595Z,98638.66
2022-11-23T14:06:02.741Z,98642.03
2022-11-23T14:11:17.014Z,98640.28
2022-11-23T14:16:45.084Z,98648.69
2022-11-23T14:22:16.613Z,98651.13
2022-11-23T14:27:52.958Z,98655.25
2022-11-23T14:33:10.021Z,98657.75
2022-11-23T14:38:47.403Z,98662.69
2022-11-23T14:43:49.822Z,98665.09
2022-11-23T14:48:52.925Z,98665.06
2022-11-23T14:53:57.882Z,98665.09
2022-11-23T14:59:17.014Z,98672.53
2022-11-23T15:04:22.878Z,98665.06
2022-11-23T15:09:39.499Z,98663.34
2022-11-23T15:14:43.425Z,98663.34
2022-11-23T15:19:54.432Z,98662.47
2022-11-23T15:25:08.280Z,98669.06
2022-11-23T15:30:23.076Z,98674.91
2022-11-23T15:35:36.118Z,98665.81
2022-11-23T15:40:39.388Z,98671.63
2022-11-23T15:45:43.919Z,98678.25
2022-11-23T15:50:59.450Z,98678.16
2022-11-23T15:56:06.059Z,98683.19
2022-11-23T16:01:14.364Z,98680.75
2022-11-23T16:06:17.952Z,98680.75
2022-11-23T16:11:30.270Z,98687.44
2022-11-23T16:16:31.899Z,98689.09
2022-11-23T16:21:33.877Z,98699.84
2022-11-23T16:26:35.499Z,98705.72
2022-11-23T16:31:39.776Z,98699.84
2022-11-23T16:36:41.585Z,98704.84
2022-11-23T16:41:43.200Z,98703.19
2022-11-23T16:46:46.844Z,98699.88
2022-11-23T16:51:57.133Z,98710.72
2022-11-23T16:56:59.210Z,98702.31
2022-11-23T17:02:01.183Z,98716.53
2022-11-23T17:07:02.796Z,98708.09
2022-11-23T17:12:07.740Z,98707.28
2022-11-23T17:17:28.734Z,98718.22
2022-11-23T17:22:30.557Z,98714.88
2022-11-23T17:27:35.120Z,98718.22
2022-11-23T17:32:36.829Z,98719.03
2022-11-23T17:37:39.075Z,98728.22
2022-11-23T17:42:40.875Z,98721.56
2022-11-23T17:47:44.715Z,98730.69
2022-11-23T17:52:47.660Z,98725.69
2022-11-23T17:57:49.417Z,98738.19
2022-11-23T18:02:52.113Z,98739.88
2022-11-23T18:07:53.739Z,98748.94
2022-11-23T18:12:55.483Z,98753.13
2022-11-23T18:18:03.059Z,98749.75
2022-11-23T18:23:06.296Z,98761.44
2022-11-23T18:28:09.353Z,98759.78
2022-11-23T18:33:10.931Z,98757.22
2022-11-23T18:38:12.729Z,98762.22
2022-11-23T18:43:14.653Z,98762.22
2022-11-23T18:48:16.273Z,98773.06
2022-11-23T18:53:18.819Z,98776.34
2022-11-23T18:58:20.951Z,98779.69
2022-11-23T19:03:22.594Z,98783.84
2022-11-23T19:08:24.312Z,98784.63
2022-11-23T19:13:25.857Z,98790.50
2022-11-23T19:18:27.636Z,98792.91
2022-11-23T19:23:29.857Z,98805.41
2022-11-23T19:28:32.713Z,98806.28
2022-11-23T19:33:34.267Z,98810.41
2022-11-23T19:38:35.813Z,98812.13
2022-11-23T19:43:37.679Z,98806.25
2022-11-23T19:48:40.407Z,98812.13
2022-11-23T19:53:43.464Z,98812.91
2022-11-23T19:58:45.735Z,98804.44
2022-11-23T20:03:50.779Z,98802.75
2022-11-23T20:08:58.251Z,98812.75
2022-11-23T20:14:00.238Z,98814.34
2022-11-23T20:19:08.588Z,98816.94
2022-11-23T20:24:12.573Z,98836.09
2022-11-23T20:29:14.238Z,98826.84
2022-11-23T20:34:21.192Z,98835.25
2022-11-23T20:39:24.572Z,98834.34
2022-11-23T20:44:32.290Z,98845.19
2022-11-23T20:49:36.000Z,98864.41
2022-11-23T20:54:38.908Z,98861.03
2022-11-23T20:59:41.554Z,98868.53
2022-11-23T21:04:43.682Z,98876.06
2022-11-23T21:09:46.367Z,98872.72
2022-11-23T21:14:49.329Z,98866.00
2022-11-23T21:19:51.831Z,98875.28
2022-11-23T21:24:54.167Z,98879.31
2022-11-23T21:29:56.373Z,98871.72
2022-11-23T21:34:58.097Z,98875.91
2022-11-23T21:39:59.784Z,98877.50
2022-11-23T21:45:01.476Z,98877.50
2022-11-23T21:50:03.270Z,98883.41
2022-11-23T21:55:05.772Z,98882.56
2022-11-23T22:00:08.187Z,98876.72
2022-11-23T22:05:13.769Z,98890.78
2022-11-23T22:10:15.780Z,98897.44
2022-11-23T22:15:17.379Z,98893.13
2022-11-23T22:20:19.166Z,98895.75
2022-11-23T22:25:20.714Z,98917.34
2022-11-23T22:30:22.513Z,98923.88
2022-11-23T22:35:24.101Z,98932.91
2022-11-23T22:40:26.879Z,98938.75
2022-11-23T22:45:28.558Z,98947.91
2022-11-23T22:50:30.225Z,98953.75
2022-11-23T22:55:32.010Z,98957.00
2022-11-23T23:00:33.600Z,98959.59
2022-11-23T23:05:35.290Z,98969.75
2022-11-23T23:10:37.028Z,98976.28
2022-11-23T23:15:38.847Z,98967.13
2022-11-23T23:20:40.669Z,98973.91
2022-11-23T23:25:42.262Z,98976.41
2022-11-23T23:30:44.075Z,98981.28
2022-11-23T23:35:45.940Z,98984.47
2022-11-23T23:40:47.524Z,98998.66
2022-11-23T23:45:50.756Z,99003.56
2022-11-23T23:50:52.576Z,99002.59
2022-11-23T23:55:58.791Z,99018.44
